Time;durP1;ratioP1;P1;durP2;ratioP2;P2;SDS_P1;SDS_P2;PMS_P1;PMS_P2;Temp;Humidity;BMP_temperature;BMP_pressure;BME280_temperature;BME280_humidity;BME280_pressure;Samples;Min_cycle;Max_cycle;Signal;HPM_P1;HPM_P2
2022/12/02 00:01:52;;;;;;;12.67;7.87;;;7.10;99.90;;;;;;5018661;28;20182;-80
2022/12/02 00:04:27;;;;;;;12.50;8.20;;;7.00;99.90;;;;;;5021972;28;20210;-80
2022/12/02 00:06:57;;;;;;;11.70;7.33;;;7.00;99.90;;;;;;5030287;28;20186;-81
2022/12/02 00:09:28;;;;;;;14.70;8.60;;;7.00;99.90;;;;;;5035237;28;20251;-79
2022/12/02 00:11:57;;;;;;;14.00;8.40;;;7.00;99.90;;;;;;5017916;28;20177;-79
2022/12/02 00:14:28;;;;;;;13.07;8.03;;;7.00;99.90;;;;;;5036816;28;20184;-80
2022/12/02 00:16:56;;;;;;;11.40;7.63;;;7.00;99.90;;;;;;5018746;28;20281;-80
2022/12/02 00:19:23;;;;;;;11.07;7.83;;;7.00;99.90;;;;;;5021555;28;20273;-81
2022/12/02 00:21:53;;;;;;;11.90;7.77;;;7.00;99.90;;;;;;5020962;28;20189;-80
2022/12/02 00:24:19;;;;;;;11.87;7.17;;;7.00;99.90;;;;;;5023805;28;20173;-80
2022/12/02 00:26:45;;;;;;;13.40;8.20;;;7.00;99.90;;;;;;5021707;28;20243;-79
2022/12/02 00:29:13;;;;;;;10.90;7.07;;;7.00;99.90;;;;;;5037851;28;20206;-80
2022/12/02 00:31:42;;;;;;;11.13;7.73;;;7.10;99.90;;;;;;5021913;28;20185;-80
2022/12/02 00:34:07;;;;;;;11.27;7.50;;;6.90;99.90;;;;;;5019757;28;20177;-80
2022/12/02 00:36:33;;;;;;;11.27;7.17;;;7.00;99.90;;;;;;5024187;28;20239;-79
2022/12/02 00:39:01;;;;;;;11.93;7.67;;;7.00;99.90;;;;;;5021435;28;20264;-80
2022/12/02 00:41:27;;;;;;;11.80;7.67;;;7.00;99.90;;;;;;5020965;28;20178;-81
2022/12/02 00:46:41;;;;;;;12.63;7.70;;;6.90;99.90;;;;;;5037300;28;21045;-81
2022/12/02 00:49:13;;;;;;;12.10;8.00;;;6.90;99.90;;;;;;5035710;28;20198;-80
2022/12/02 00:51:43;;;;;;;11.00;7.83;;;6.90;99.90;;;;;;5021022;28;20196;-80
2022/12/02 00:54:10;;;;;;;11.43;8.03;;;6.80;99.90;;;;;;5018279;28;20181;-80
2022/12/02 00:56:41;;;;;;;13.53;8.43;;;6.90;99.90;;;;;;5023041;28;20331;-79
2022/12/02 00:59:09;;;;;;;10.70;7.67;;;6.90;99.90;;;;;;5037022;28;20217;-80
2022/12/02 01:01:35;;;;;;;12.37;7.87;;;6.80;99.90;;;;;;5020959;28;20196;-79
2022/12/02 01:04:01;;;;;;;12.10;7.87;;;6.80;99.90;;;;;;5021138;28;20201;-81
2022/12/02 01:06:27;;;;;;;14.53;8.90;;;6.80;99.90;;;;;;5026328;28;20178;-81
2022/12/02 01:08:52;;;;;;;12.97;8.63;;;7.00;99.90;;;;;;5022123;28;20201;-81
2022/12/02 01:11:18;;;;;;;14.37;8.37;;;6.80;99.90;;;;;;5037885;28;20178;-81
2022/12/02 01:13:44;;;;;;;14.90;8.67;;;6.80;99.90;;;;;;5020994;28;20184;-80
2022/12/02 01:16:10;;;;;;;13.40;8.30;;;6.80;99.90;;;;;;5020724;28;20205;-81
2022/12/02 01:18:35;;;;;;;10.43;7.53;;;6.80;99.90;;;;;;5022828;28;20185;-81
2022/12/02 01:21:03;;;;;;;13.20;8.13;;;6.80;99.90;;;;;;5020263;28;20186;-79
2022/12/02 01:23:34;;;;;;;13.10;7.50;;;6.70;99.90;;;;;;5023505;28;20182;-80
2022/12/02 01:25:59;;;;;;;12.77;8.03;;;6.70;99.90;;;;;;5022717;28;20198;-81
2022/12/02 01:28:25;;;;;;;13.63;8.50;;;6.70;99.90;;;;;;5020779;28;20190;-81
2022/12/02 01:30:51;;;;;;;12.90;8.13;;;6.70;99.90;;;;;;5019522;28;20183;-81
2022/12/02 01:33:16;;;;;;;11.00;8.00;;;6.70;99.90;;;;;;5020716;28;20510;-81
2022/12/02 01:35:42;;;;;;;13.63;8.27;;;6.70;99.90;;;;;;5037289;28;20219;-80
2022/12/02 01:38:08;;;;;;;13.37;8.43;;;6.70;99.90;;;;;;5021661;28;20182;-79
2022/12/02 01:40:35;;;;;;;15.57;8.83;;;6.70;99.90;;;;;;5008033;28;20201;-80
2022/12/02 01:43:01;;;;;;;15.30;8.83;;;6.70;99.90;;;;;;5020340;28;20174;-81
2022/12/02 01:45:30;;;;;;;15.77;8.93;;;6.60;99.90;;;;;;5021496;28;20189;-79
2022/12/02 01:47:56;;;;;;;13.97;8.37;;;6.60;99.90;;;;;;5022146;28;20193;-79
2022/12/02 01:50:24;;;;;;;17.00;9.00;;;6.70;99.90;;;;;;5020028;28;20184;-80
2022/12/02 01:52:50;;;;;;;13.40;8.03;;;6.50;99.90;;;;;;5024134;28;20190;-80
2022/12/02 01:55:20;;;;;;;15.50;8.90;;;6.50;99.90;;;;;;5022972;28;21102;-81
2022/12/02 01:57:46;;;;;;;12.40;8.33;;;6.50;99.90;;;;;;5022585;28;20182;-80
2022/12/02 02:00:15;;;;;;;14.20;8.30;;;6.50;99.90;;;;;;5020221;28;20181;-79
2022/12/02 02:02:44;;;;;;;13.90;8.57;;;6.50;99.90;;;;;;5020545;28;20193;-81
2022/12/02 02:05:14;;;;;;;13.37;8.10;;;6.50;99.90;;;;;;5020608;28;20235;-80
2022/12/02 02:07:41;;;;;;;13.40;8.40;;;6.50;99.90;;;;;;5019687;28;20217;-80
2022/12/02 02:10:10;;;;;;;14.00;8.33;;;6.40;99.90;;;;;;5022091;28;20182;-79
2022/12/02 02:12:35;;;;;;;13.83;8.50;;;6.50;99.90;;;;;;5021322;28;20251;-80
2022/12/02 02:15:04;;;;;;;12.47;8.27;;;6.40;99.90;;;;;;5019173;28;20260;-79
2022/12/02 02:17:30;;;;;;;13.63;8.53;;;6.40;99.90;;;;;;5020040;28;20182;-80
2022/12/02 02:19:56;;;;;;;13.43;8.23;;;6.40;99.90;;;;;;5018445;28;20200;-80
2022/12/02 02:22:38;;;;;;;13.00;8.27;;;6.40;99.90;;;;;;5033956;28;20185;-78
2022/12/02 02:25:15;;;;;;;13.07;7.43;;;6.40;99.90;;;;;;5016050;28;20185;-79
2022/12/02 02:27:53;;;;;;;10.77;7.27;;;6.40;99.90;;;;;;5017278;28;20202;-80
2022/12/02 02:30:19;;;;;;;12.57;7.90;;;6.40;99.90;;;;;;5019148;28;20181;-80
2022/12/02 02:32:45;;;;;;;11.70;7.27;;;6.50;99.90;;;;;;5018001;28;20188;-80
2022/12/02 02:35:11;;;;;;;12.40;7.93;;;6.40;99.90;;;;;;5020934;28;20174;-79
2022/12/02 02:37:37;;;;;;;13.30;8.10;;;6.40;99.90;;;;;;5019256;28;20184;-79
2022/12/02 02:40:06;;;;;;;13.17;8.20;;;6.30;99.90;;;;;;5019519;28;20185;-80
2022/12/02 02:42:33;;;;;;;12.50;7.97;;;6.30;99.90;;;;;;5040409;28;20265;-80
2022/12/02 02:45:02;;;;;;;11.40;7.40;;;6.30;99.90;;;;;;5019954;28;20181;-78
2022/12/02 02:47:27;;;;;;;12.10;7.67;;;6.30;99.90;;;;;;5022834;28;20173;-80
2022/12/02 02:49:53;;;;;;;10.83;7.17;;;6.30;99.90;;;;;;5021996;28;20182;-81
2022/12/02 02:52:21;;;;;;;13.33;8.27;;;6.30;99.90;;;;;;5022579;28;20252;-79
2022/12/02 02:54:47;;;;;;;10.53;7.27;;;6.30;99.90;;;;;;5016810;28;20216;-79
2022/12/02 02:57:15;;;;;;;10.33;6.53;;;6.30;99.90;;;;;;5019175;28;20214;-80
2022/12/02 02:59:44;;;;;;;11.27;7.40;;;6.30;99.90;;;;;;5022752;28;20185;-80
2022/12/02 03:02:11;;;;;;;10.67;7.23;;;6.30;99.90;;;;;;5018837;28;20221;-80
2022/12/02 03:04:39;;;;;;;11.40;7.13;;;6.40;99.90;;;;;;5018446;28;20189;-79
2022/12/02 03:07:08;;;;;;;11.73;7.93;;;6.40;99.90;;;;;;5035742;28;20278;-81
2022/12/02 03:09:36;;;;;;;10.73;6.93;;;6.30;99.90;;;;;;5021569;28;20226;-79
2022/12/02 03:12:02;;;;;;;11.67;7.50;;;6.30;99.90;;;;;;5020283;28;20186;-80
2022/12/02 03:14:29;;;;;;;9.53;6.73;;;6.30;99.90;;;;;;5020809;28;20189;-80
2022/12/02 03:16:58;;;;;;;9.43;6.63;;;6.30;99.90;;;;;;5018636;28;20174;-79
2022/12/02 03:19:24;;;;;;;9.47;6.53;;;6.40;99.90;;;;;;5021247;28;20189;-80
2022/12/02 03:21:50;;;;;;;10.93;7.50;;;6.30;99.90;;;;;;5023987;28;20806;-79
2022/12/02 03:24:18;;;;;;;11.13;6.67;;;6.30;99.90;;;;;;5016542;28;20197;-80
2022/12/02 03:26:45;;;;;;;10.17;6.97;;;6.30;99.90;;;;;;5036401;28;20241;-80
2022/12/02 03:29:14;;;;;;;10.03;6.70;;;6.30;99.90;;;;;;5017743;28;21176;-79
2022/12/02 03:31:41;;;;;;;10.10;6.63;;;6.40;99.90;;;;;;5029303;28;20205;-81
2022/12/02 03:34:09;;;;;;;9.80;6.63;;;6.40;99.90;;;;;;5019670;28;20186;-80
2022/12/02 03:36:38;;;;;;;10.47;6.83;;;6.30;99.90;;;;;;5018930;28;20269;-81
2022/12/02 03:39:04;;;;;;;11.63;7.80;;;6.30;99.90;;;;;;5018492;28;20270;-80
2022/12/02 03:41:30;;;;;;;12.43;7.87;;;6.30;99.90;;;;;;5017084;28;20255;-79
2022/12/02 03:44:01;;;;;;;11.10;7.37;;;6.20;99.90;;;;;;5018308;28;20209;-80
2022/12/02 03:46:29;;;;;;;10.63;7.27;;;6.20;99.90;;;;;;5018667;28;20204;-80
2022/12/02 03:48:55;;;;;;;11.20;7.10;;;6.20;99.90;;;;;;5021603;28;20201;-80
2022/12/02 03:51:24;;;;;;;11.23;7.47;;;6.40;99.90;;;;;;5023390;28;20204;-79
2022/12/02 03:53:50;;;;;;;12.30;7.97;;;6.30;99.90;;;;;;5017555;28;20256;-79
2022/12/02 03:56:15;;;;;;;11.10;7.23;;;6.40;99.90;;;;;;5018361;28;20201;-80
2022/12/02 03:58:46;;;;;;;13.13;8.10;;;6.20;99.90;;;;;;5018386;28;20217;-79
2022/12/02 04:01:14;;;;;;;12.23;7.60;;;6.20;99.90;;;;;;5019846;28;20193;-79
2022/12/02 04:03:40;;;;;;;12.83;8.10;;;6.30;99.90;;;;;;5018091;28;20186;-79
2022/12/02 04:06:06;;;;;;;13.63;8.60;;;6.20;99.90;;;;;;5015398;28;20236;-79
2022/12/02 04:08:32;;;;;;;13.67;8.20;;;6.10;99.90;;;;;;5018495;28;20210;-80
2022/12/02 04:11:00;;;;;;;12.40;7.63;;;6.10;99.90;;;;;;5026206;28;20177;-79
2022/12/02 04:13:28;;;;;;;13.73;8.10;;;6.10;99.90;;;;;;5019480;28;20190;-79
2022/12/02 04:15:54;;;;;;;14.87;8.70;;;6.10;99.90;;;;;;5020069;28;20189;-78
2022/12/02 04:18:19;;;;;;;11.43;7.13;;;6.00;99.90;;;;;;5020189;28;20235;-79
2022/12/02 04:20:45;;;;;;;12.83;8.03;;;6.10;99.90;;;;;;5018677;28;20208;-77
2022/12/02 04:23:10;;;;;;;13.53;7.90;;;6.00;99.90;;;;;;5018929;28;20182;-80
2022/12/02 04:25:36;;;;;;;13.77;7.90;;;6.00;99.90;;;;;;5017297;28;20193;-79
2022/12/02 04:28:02;;;;;;;13.83;8.60;;;6.00;99.90;;;;;;5016911;28;20202;-80
2022/12/02 04:30:28;;;;;;;13.80;8.23;;;6.00;99.90;;;;;;5016145;28;20170;-79
2022/12/02 04:32:56;;;;;;;13.97;7.90;;;6.00;99.90;;;;;;5019938;28;20182;-78
2022/12/02 04:35:26;;;;;;;12.83;7.70;;;6.00;99.90;;;;;;5019605;28;20182;-78
2022/12/02 04:37:53;;;;;;;11.73;7.47;;;6.00;99.90;;;;;;5018439;28;20189;-79
2022/12/02 04:40:22;;;;;;;15.10;9.03;;;6.00;99.90;;;;;;5005027;28;20186;-80
2022/12/02 04:42:47;;;;;;;12.53;7.90;;;6.00;99.90;;;;;;5016553;28;20184;-80
2022/12/02 04:45:14;;;;;;;15.70;9.20;;;5.90;99.90;;;;;;5018636;28;20280;-80
2022/12/02 04:47:41;;;;;;;12.93;7.57;;;6.00;99.90;;;;;;5017765;28;20269;-79
2022/12/02 04:50:08;;;;;;;15.30;8.37;;;5.90;99.90;;;;;;5015203;28;20175;-79
2022/12/02 04:52:33;;;;;;;15.00;8.90;;;6.00;99.90;;;;;;5019229;28;20188;-79
2022/12/02 04:55:04;;;;;;;13.07;7.90;;;6.00;99.90;;;;;;5018387;28;20277;-78
2022/12/02 04:57:31;;;;;;;12.77;7.60;;;6.00;99.90;;;;;;5015688;28;20434;-80
2022/12/02 04:59:59;;;;;;;12.80;8.07;;;6.00;99.90;;;;;;5019947;28;20213;-79
2022/12/02 05:02:25;;;;;;;17.00;10.57;;;6.00;99.90;;;;;;5019623;28;20190;-79
2022/12/02 05:04:51;;;;;;;18.20;11.37;;;6.00;99.90;;;;;;5021277;28;20204;-79
2022/12/02 05:07:16;;;;;;;18.77;10.63;;;6.00;99.90;;;;;;5021077;28;20174;-79
2022/12/02 05:09:43;;;;;;;18.07;10.20;;;6.10;99.90;;;;;;5025648;28;20292;-79
2022/12/02 05:12:09;;;;;;;13.73;8.50;;;6.10;99.90;;;;;;5025122;28;20181;-79
2022/12/02 05:14:37;;;;;;;16.30;9.00;;;6.00;99.90;;;;;;5022056;28;20193;-79
2022/12/02 05:17:05;;;;;;;15.93;9.70;;;6.00;99.90;;;;;;5023368;28;20193;-80
2022/12/02 05:19:31;;;;;;;14.67;9.10;;;6.10;99.90;;;;;;5022376;28;20182;-80
2022/12/02 05:21:56;;;;;;;15.93;9.93;;;6.00;99.90;;;;;;5021224;28;20196;-80
2022/12/02 05:24:22;;;;;;;17.63;10.17;;;6.00;99.90;;;;;;5024657;28;20170;-79
2022/12/02 05:26:47;;;;;;;15.13;9.70;;;6.00;99.90;;;;;;5020444;28;20177;-80
2022/12/02 05:29:15;;;;;;;16.57;10.40;;;6.10;99.90;;;;;;5020567;28;20269;-80
2022/12/02 05:31:41;;;;;;;18.70;11.47;;;5.90;99.90;;;;;;5019352;28;20178;-81
2022/12/02 05:34:07;;;;;;;22.77;13.40;;;5.90;99.90;;;;;;5020895;28;20179;-79
2022/12/02 05:36:32;;;;;;;18.03;11.00;;;5.90;99.90;;;;;;5021545;28;20178;-79
2022/12/02 05:38:58;;;;;;;15.33;9.80;;;5.90;99.90;;;;;;5022531;28;20178;-79
2022/12/02 05:41:23;;;;;;;16.87;10.23;;;5.90;99.90;;;;;;5022768;28;20188;-80
2022/12/02 05:43:49;;;;;;;17.23;10.13;;;5.90;99.90;;;;;;5019682;28;20178;-80
2022/12/02 05:46:22;;;;;;;16.37;10.20;;;5.90;99.90;;;;;;5023116;28;20193;-78
2022/12/02 05:48:49;;;;;;;17.33;10.23;;;5.90;99.90;;;;;;5021381;28;20193;-80
2022/12/02 05:51:20;;;;;;;17.33;10.20;;;5.90;99.90;;;;;;5021012;28;20178;-79
2022/12/02 05:53:47;;;;;;;16.87;10.30;;;5.90;99.90;;;;;;5020328;28;20178;-80
2022/12/02 05:56:25;;;;;;;17.50;10.57;;;5.90;99.90;;;;;;5020893;28;20231;-80
2022/12/02 05:58:51;;;;;;;16.53;9.43;;;5.90;99.90;;;;;;5017082;28;20255;-81
2022/12/02 06:01:37;;;;;;;21.13;10.83;;;5.90;99.90;;;;;;5020687;28;20185;-81
2022/12/02 06:04:05;;;;;;;16.80;10.40;;;5.90;99.90;;;;;;5022401;28;20181;-80
2022/12/02 06:06:34;;;;;;;17.20;10.63;;;5.90;99.90;;;;;;5020620;28;20170;-79
2022/12/02 06:09:00;;;;;;;17.73;10.13;;;5.90;99.90;;;;;;5021492;28;20263;-78
2022/12/02 06:11:35;;;;;;;16.23;9.90;;;6.10;99.90;;;;;;5016999;28;20178;-78
2022/12/02 06:14:05;;;;;;;16.37;9.53;;;5.90;99.90;;;;;;5018350;28;20182;-78
2022/12/02 06:16:33;;;;;;;16.67;9.73;;;6.00;99.90;;;;;;5019051;28;20171;-78
2022/12/02 06:18:59;;;;;;;18.27;10.70;;;5.90;99.90;;;;;;5032297;28;20196;-78
2022/12/02 06:21:26;;;;;;;19.73;11.37;;;6.00;99.90;;;;;;5020227;28;20182;-78
2022/12/02 06:23:55;;;;;;;21.87;11.93;;;6.00;99.90;;;;;;5018821;28;20200;-77
2022/12/02 06:26:21;;;;;;;19.73;11.13;;;6.00;99.90;;;;;;5022755;28;20217;-78
2022/12/02 06:28:55;;;;;;;21.17;11.00;;;5.90;99.90;;;;;;5038579;28;20201;-78
2022/12/02 06:31:30;;;;;;;18.70;10.30;;;5.90;99.90;;;;;;5018067;28;20285;-78
2022/12/02 06:34:00;;;;;;;18.80;10.73;;;5.90;99.90;;;;;;5036227;28;20178;-78
2022/12/02 06:36:30;;;;;;;17.30;9.97;;;5.90;99.90;;;;;;5023407;28;20256;-78
2022/12/02 06:38:58;;;;;;;19.77;11.40;;;5.90;99.90;;;;;;5013706;28;20189;-78
2022/12/02 06:41:25;;;;;;;18.13;10.13;;;5.80;99.90;;;;;;5021273;28;20178;-78
2022/12/02 06:46:40;;;;;;;18.20;9.97;;;5.80;99.90;;;;;;5033278;28;20259;-78
2022/12/02 06:49:22;;;;;;;20.23;11.17;;;5.90;99.90;;;;;;5019543;28;20194;-79
2022/12/02 06:51:54;;;;;;;20.63;10.63;;;5.80;99.90;;;;;;5017944;28;20174;-78
2022/12/02 06:54:31;;;;;;;20.90;11.40;;;5.80;99.90;;;;;;5017700;28;20174;-79
2022/12/02 06:57:01;;;;;;;20.53;10.93;;;5.80;99.90;;;;;;5020040;28;20185;-80
2022/12/02 06:59:29;;;;;;;23.00;11.33;;;5.90;99.90;;;;;;5021878;28;20178;-80
2022/12/02 07:01:59;;;;;;;18.90;9.87;;;5.90;99.90;;;;;;5028998;28;20186;-79
2022/12/02 07:04:40;;;;;;;18.97;10.37;;;5.90;99.90;;;;;;5026156;28;20193;-79
2022/12/02 07:07:20;;;;;;;20.60;10.23;;;5.90;99.90;;;;;;5020096;28;20182;-79
2022/12/02 07:09:54;;;;;;;22.57;10.70;;;5.90;99.90;;;;;;5035864;28;20198;-79
2022/12/02 07:12:29;;;;;;;22.47;11.13;;;5.90;99.90;;;;;;5015410;28;20181;-79
2022/12/02 07:15:13;;;;;;;25.93;11.50;;;5.90;99.90;;;;;;5015702;28;20189;-79
2022/12/02 07:17:41;;;;;;;21.43;10.40;;;5.90;99.90;;;;;;5019198;28;20192;-77
2022/12/02 07:20:10;;;;;;;20.63;10.23;;;5.90;99.90;;;;;;5020604;28;20384;-78
2022/12/02 07:22:48;;;;;;;21.93;11.47;;;5.90;99.90;;;;;;5019015;28;20220;-79
2022/12/02 07:25:34;;;;;;;20.67;10.27;;;5.90;99.90;;;;;;5020527;28;20576;-80
2022/12/02 07:28:15;;;;;;;21.03;11.13;;;5.90;99.90;;;;;;5016231;28;20201;-78
2022/12/02 07:30:42;;;;;;;21.17;10.60;;;5.90;99.90;;;;;;5018775;28;20192;-79
2022/12/02 07:33:07;;;;;;;21.67;11.27;;;5.90;99.90;;;;;;5018286;28;20182;-77
2022/12/02 07:35:35;;;;;;;22.73;11.20;;;5.90;99.90;;;;;;5018817;28;20188;-78
2022/12/02 07:38:01;;;;;;;20.53;10.60;;;5.90;99.90;;;;;;5018829;28;20209;-78
2022/12/02 07:40:26;;;;;;;21.57;11.30;;;5.90;99.90;;;;;;5022216;28;20215;-79
2022/12/02 07:42:54;;;;;;;19.60;10.53;;;5.80;99.90;;;;;;5018321;28;20188;-77
2022/12/02 07:45:20;;;;;;;21.87;10.83;;;5.80;99.90;;;;;;5018550;28;20209;-79
2022/12/02 07:47:48;;;;;;;22.20;10.63;;;5.80;99.90;;;;;;5014622;28;20182;-78
2022/12/02 07:50:16;;;;;;;19.30;10.40;;;5.90;99.90;;;;;;5026464;28;20186;-78
2022/12/02 07:52:46;;;;;;;20.03;10.83;;;5.80;99.90;;;;;;5018254;28;20271;-78
2022/12/02 07:55:12;;;;;;;23.93;11.30;;;5.80;99.90;;;;;;5015270;28;20192;-79
2022/12/02 07:57:38;;;;;;;19.50;10.83;;;5.80;99.90;;;;;;5021304;28;20182;-80
2022/12/02 08:00:05;;;;;;;20.17;10.63;;;5.90;99.90;;;;;;5021886;28;20178;-80
2022/12/02 08:02:33;;;;;;;20.87;10.67;;;5.80;99.90;;;;;;5019725;28;20244;-72
2022/12/02 08:04:59;;;;;;;19.80;9.97;;;5.80;99.90;;;;;;5026725;28;20296;-73
2022/12/02 08:07:25;;;;;;;22.47;10.90;;;6.10;99.90;;;;;;5018439;28;20221;-73
2022/12/02 08:09:50;;;;;;;22.80;10.93;;;5.90;99.90;;;;;;5017704;28;20209;-73
2022/12/02 08:12:16;;;;;;;26.67;12.60;;;5.80;99.90;;;;;;5029961;28;20186;-73
2022/12/02 08:14:41;;;;;;;25.60;12.80;;;5.90;99.90;;;;;;5018914;28;20185;-74
2022/12/02 08:17:09;;;;;;;23.27;11.67;;;5.80;99.90;;;;;;5016452;28;20166;-74
2022/12/02 08:19:35;;;;;;;26.93;12.90;;;5.80;99.90;;;;;;5029144;28;20192;-73
2022/12/02 08:22:00;;;;;;;23.87;12.10;;;5.80;99.90;;;;;;5018735;28;20173;-74
2022/12/02 08:24:28;;;;;;;23.83;11.40;;;5.80;99.90;;;;;;5036602;28;20257;-73
2022/12/02 08:26:54;;;;;;;21.30;11.63;;;5.90;99.90;;;;;;5019038;28;20276;-73
2022/12/02 08:29:19;;;;;;;21.80;11.23;;;5.90;99.90;;;;;;5029097;28;20280;-73
2022/12/02 08:31:45;;;;;;;24.47;11.63;;;5.90;99.90;;;;;;5017561;28;20182;-73
2022/12/02 08:34:11;;;;;;;23.33;12.37;;;5.90;99.90;;;;;;5017734;28;20174;-74
2022/12/02 08:36:36;;;;;;;23.90;11.33;;;5.90;99.90;;;;;;5021231;28;20178;-73
2022/12/02 08:39:04;;;;;;;21.53;11.03;;;5.90;99.90;;;;;;5030472;28;20222;-73
2022/12/02 08:41:35;;;;;;;23.63;11.80;;;5.90;99.90;;;;;;5025140;28;20198;-73
2022/12/02 08:44:04;;;;;;;26.50;12.47;;;5.90;99.90;;;;;;5021440;28;20190;-73
2022/12/02 08:46:35;;;;;;;22.03;11.20;;;5.90;99.90;;;;;;5021693;28;20197;-74
2022/12/02 08:49:01;;;;;;;23.53;12.23;;;5.90;99.90;;;;;;5029725;28;20289;-74
2022/12/02 08:51:27;;;;;;;21.13;10.20;;;5.90;99.90;;;;;;5021307;28;20198;-74
2022/12/02 08:53:53;;;;;;;22.03;11.77;;;5.90;99.90;;;;;;5021234;28;20182;-74
2022/12/02 08:56:19;;;;;;;25.57;12.70;;;5.90;99.90;;;;;;5022514;28;20245;-74
2022/12/02 08:58:45;;;;;;;22.37;11.50;;;5.90;99.90;;;;;;5023416;28;20182;-74
2022/12/02 09:01:10;;;;;;;20.90;10.87;;;5.90;99.90;;;;;;5021420;28;20200;-74
2022/12/02 09:03:38;;;;;;;23.97;12.00;;;6.00;99.90;;;;;;5025094;28;20224;-74
2022/12/02 09:06:06;;;;;;;25.97;11.83;;;6.00;99.90;;;;;;5021205;28;20224;-73
2022/12/02 09:08:34;;;;;;;23.97;11.57;;;6.00;99.90;;;;;;5019003;28;20205;-73
2022/12/02 09:11:02;;;;;;;24.40;11.70;;;6.00;99.90;;;;;;5023416;28;20193;-73
2022/12/02 09:13:28;;;;;;;22.43;11.67;;;6.00;99.90;;;;;;5020806;28;20214;-74
2022/12/02 09:15:53;;;;;;;22.13;11.60;;;6.10;99.90;;;;;;5020593;28;20213;-73
2022/12/02 09:18:21;;;;;;;24.27;11.43;;;6.00;99.90;;;;;;5020475;28;20182;-73
2022/12/02 09:20:47;;;;;;;24.07;10.60;;;6.10;99.90;;;;;;5022431;28;20186;-74
2022/12/02 09:23:15;;;;;;;23.67;11.73;;;6.10;99.90;;;;;;5022041;28;21163;-73
2022/12/02 09:25:43;;;;;;;23.57;12.13;;;6.20;99.90;;;;;;5021273;28;20181;-74
2022/12/02 09:28:11;;;;;;;24.50;11.90;;;6.20;99.90;;;;;;5022499;28;20272;-73
2022/12/02 09:30:38;;;;;;;24.73;12.13;;;6.00;99.90;;;;;;5019890;28;20201;-74
2022/12/02 09:33:04;;;;;;;25.63;12.27;;;6.10;99.90;;;;;;5020649;28;20308;-74
2022/12/02 09:35:30;;;;;;;21.43;11.30;;;6.10;99.90;;;;;;5020146;28;20273;-73
2022/12/02 09:37:57;;;;;;;23.73;11.83;;;6.10;99.90;;;;;;5019786;28;20209;-74
2022/12/02 09:40:23;;;;;;;21.77;11.20;;;6.00;99.90;;;;;;5021454;28;20192;-73
2022/12/02 09:42:50;;;;;;;25.70;12.20;;;6.10;99.90;;;;;;5025612;28;20174;-74
2022/12/02 09:45:17;;;;;;;21.90;11.53;;;6.10;99.90;;;;;;5020832;28;20198;-73
2022/12/02 09:47:42;;;;;;;23.33;11.47;;;6.10;99.90;;;;;;5019843;28;20193;-74
2022/12/02 09:50:16;;;;;;;22.77;11.77;;;6.20;99.90;;;;;;5019004;28;20174;-74
2022/12/02 09:52:42;;;;;;;21.37;10.83;;;6.20;99.90;;;;;;5018823;28;20178;-75
2022/12/02 09:55:17;;;;;;;25.47;11.97;;;6.20;99.90;;;;;;5024711;28;20174;-75
2022/12/02 09:57:48;;;;;;;27.03;11.83;;;6.20;99.90;;;;;;5018083;28;20228;-73
2022/12/02 10:00:19;;;;;;;21.47;11.27;;;6.20;99.90;;;;;;5020465;28;20177;-74
2022/12/02 10:02:53;;;;;;;23.83;12.17;;;6.20;99.90;;;;;;5024599;28;20178;-74
2022/12/02 10:05:21;;;;;;;21.93;11.17;;;6.30;99.90;;;;;;5022074;28;20227;-73
2022/12/02 10:07:49;;;;;;;25.43;12.37;;;6.30;99.90;;;;;;5021734;28;20220;-75
2022/12/02 10:10:25;;;;;;;24.13;11.87;;;6.30;99.90;;;;;;5020109;28;20174;-73
2022/12/02 10:12:54;;;;;;;25.03;12.30;;;6.30;99.90;;;;;;5015152;28;20182;-74
2022/12/02 10:15:25;;;;;;;22.53;11.77;;;6.30;99.90;;;;;;5019171;28;20189;-73
2022/12/02 10:17:52;;;;;;;23.80;11.67;;;6.30;99.90;;;;;;5017683;28;20181;-74
2022/12/02 10:20:23;;;;;;;24.90;11.97;;;6.50;99.90;;;;;;5020184;28;20192;-74
2022/12/02 10:23:23;;;;;;;25.23;11.53;;;6.40;99.90;;;;;;5010632;28;20186;-74
2022/12/02 10:25:53;;;;;;;19.23;10.87;;;6.40;99.90;;;;;;5007817;28;20454;-74
2022/12/02 10:28:23;;;;;;;23.27;11.80;;;6.40;99.90;;;;;;5019770;28;20202;-74
2022/12/02 10:31:04;;;;;;;26.73;12.73;;;6.40;99.90;;;;;;5017847;28;20378;-74
2022/12/02 10:33:32;;;;;;;22.27;11.83;;;6.60;99.90;;;;;;5022796;28;20205;-74
2022/12/02 10:36:01;;;;;;;25.97;12.40;;;6.50;99.90;;;;;;5018878;28;20182;-73
2022/12/02 10:38:33;;;;;;;24.60;12.50;;;6.60;99.90;;;;;;5024271;28;20221;-74
2022/12/02 10:41:14;;;;;;;22.00;11.77;;;6.50;99.90;;;;;;5021213;28;20182;-74
2022/12/02 10:44:02;;;;;;;20.87;10.97;;;6.60;99.90;;;;;;5018158;28;20190;-74
2022/12/02 10:46:28;;;;;;;23.53;12.70;;;6.60;99.90;;;;;;5013937;28;20296;-75
2022/12/02 10:49:16;;;;;;;23.13;11.97;;;6.60;99.90;;;;;;5019478;28;20276;-73
2022/12/02 10:51:42;;;;;;;24.63;12.57;;;6.70;99.90;;;;;;5019681;28;20186;-73
2022/12/02 10:54:27;;;;;;;23.93;11.67;;;6.80;99.90;;;;;;5020407;28;20270;-74
2022/12/02 10:56:58;;;;;;;25.63;12.50;;;6.80;99.90;;;;;;5019676;28;20186;-74
2022/12/02 10:59:24;;;;;;;23.47;11.77;;;6.80;99.90;;;;;;5018895;28;20281;-74
2022/12/02 11:01:53;;;;;;;22.57;12.23;;;6.80;99.90;;;;;;5018203;28;20269;-74
2022/12/02 11:04:19;;;;;;;21.67;11.20;;;6.80;99.90;;;;;;5018991;28;20192;-73
2022/12/02 11:06:46;;;;;;;22.37;11.50;;;6.80;99.90;;;;;;5022813;28;20186;-74
2022/12/02 11:09:19;;;;;;;21.27;11.70;;;6.80;99.90;;;;;;5022526;28;20205;-74
2022/12/02 11:11:46;;;;;;;26.17;13.63;;;6.90;99.90;;;;;;5016594;28;20173;-74
2022/12/02 11:14:37;;;;;;;23.77;11.97;;;6.90;99.90;;;;;;5019245;28;20227;-74
2022/12/02 11:17:11;;;;;;;24.37;11.43;;;6.80;99.90;;;;;;5016739;28;20187;-74
2022/12/02 11:19:42;;;;;;;19.50;10.83;;;6.90;99.90;;;;;;5033591;28;20177;-74
2022/12/02 11:22:46;;;;;;;22.07;11.50;;;6.90;99.90;;;;;;5020166;28;20220;-74
2022/12/02 11:25:43;;;;;;;22.07;12.23;;;6.80;99.90;;;;;;5018243;28;20209;-74
2022/12/02 11:28:20;;;;;;;20.50;10.60;;;6.80;99.90;;;;;;5017629;28;20205;-74
2022/12/02 11:30:47;;;;;;;18.20;10.97;;;6.80;99.90;;;;;;5012235;28;20181;-73
2022/12/02 11:33:43;;;;;;;21.13;11.23;;;6.80;99.90;;;;;;5018215;28;20182;-74
2022/12/02 11:36:24;;;;;;;21.50;11.00;;;6.80;99.90;;;;;;5003752;28;20178;-74
2022/12/02 11:38:52;;;;;;;22.50;11.87;;;6.80;99.90;;;;;;5018867;28;20347;-74
2022/12/02 11:41:21;;;;;;;21.10;11.30;;;6.90;99.90;;;;;;5018677;28;20272;-74
2022/12/02 11:43:49;;;;;;;21.93;11.27;;;6.90;99.90;;;;;;5018465;28;20192;-73
2022/12/02 11:46:17;;;;;;;22.40;11.97;;;6.90;99.90;;;;;;5020589;28;20201;-74
2022/12/02 11:48:56;;;;;;;21.67;11.53;;;6.90;99.90;;;;;;5018465;28;20263;-74
2022/12/02 11:51:31;;;;;;;21.03;11.33;;;6.90;99.90;;;;;;5018362;28;20252;-74
2022/12/02 11:54:00;;;;;;;21.27;10.90;;;7.00;99.90;;;;;;5036094;28;20189;-74
2022/12/02 11:56:31;;;;;;;20.17;11.27;;;6.90;99.90;;;;;;5018459;28;20189;-73
2022/12/02 11:58:57;;;;;;;19.30;10.73;;;7.00;99.90;;;;;;5017236;28;20269;-74
2022/12/02 12:01:25;;;;;;;22.40;11.67;;;7.00;99.90;;;;;;5018221;28;20260;-73
2022/12/02 12:03:51;;;;;;;17.80;11.10;;;7.10;99.90;;;;;;5016465;28;20277;-73
2022/12/02 12:06:23;;;;;;;18.87;9.70;;;7.00;99.90;;;;;;5017537;28;20265;-73
2022/12/02 12:08:53;;;;;;;17.30;9.13;;;7.00;99.90;;;;;;5018897;28;20232;-74
2022/12/02 12:11:34;;;;;;;16.13;9.10;;;7.00;99.90;;;;;;5019585;28;20182;-74
2022/12/02 12:14:14;;;;;;;18.30;9.67;;;7.00;99.90;;;;;;5015568;28;20208;-74
2022/12/02 12:16:46;;;;;;;14.90;9.20;;;7.10;99.90;;;;;;5018363;28;20177;-73
2022/12/02 12:19:11;;;;;;;13.57;8.37;;;7.10;99.90;;;;;;5017708;28;20188;-73
2022/12/02 12:21:44;;;;;;;12.40;7.80;;;7.00;99.90;;;;;;5018436;28;20260;-73
2022/12/02 12:24:33;;;;;;;10.30;6.60;;;7.10;99.90;;;;;;5019187;28;20182;-74
2022/12/02 12:27:04;;;;;;;6.47;4.67;;;7.00;99.90;;;;;;5019673;28;20182;-74
2022/12/02 12:29:34;;;;;;;6.47;4.87;;;6.90;99.90;;;;;;5018985;28;20201;-74
2022/12/02 12:32:00;;;;;;;6.10;4.33;;;6.80;99.90;;;;;;5017812;28;20216;-73
2022/12/02 12:34:28;;;;;;;4.73;4.10;;;6.80;99.90;;;;;;5018445;28;20177;-73
2022/12/02 12:36:54;;;;;;;5.37;4.03;;;6.70;99.90;;;;;;5031610;28;20292;-73
2022/12/02 12:39:19;;;;;;;5.43;4.33;;;6.70;99.90;;;;;;5015657;28;20245;-73
2022/12/02 12:41:45;;;;;;;4.83;4.30;;;6.60;99.90;;;;;;5017640;28;20293;-73
2022/12/02 12:44:11;;;;;;;5.40;4.40;;;6.50;99.90;;;;;;5017397;28;20189;-73
2022/12/02 12:46:39;;;;;;;4.97;3.70;;;6.50;99.90;;;;;;5019364;28;20193;-73
2022/12/02 12:49:05;;;;;;;5.53;4.53;;;6.40;99.90;;;;;;5019153;28;20224;-74
2022/12/02 12:51:30;;;;;;;5.53;4.47;;;6.50;99.90;;;;;;5018803;28;20178;-74
2022/12/02 12:53:56;;;;;;;5.33;4.43;;;6.30;99.90;;;;;;5019543;28;20216;-74
2022/12/02 12:56:24;;;;;;;6.07;4.73;;;6.50;99.90;;;;;;5017348;28;20197;-74
2022/12/02 12:58:52;;;;;;;5.67;4.67;;;6.30;99.90;;;;;;5017298;28;20182;-73